Latest Weather Observations for Holsworthy

IDN60801

Issued at 7:02 am EDT Thursday 8 December 2016 (issued every 30 minutes, with the page automatically refreshed every 10 minutes)

About weather observations | Map of weather stations | Latest weather observations for NSW | Other Formats
Station Details ID: 066161 Name: HOLSWORTHY AERODROME AWS Lat: -33.99 Lon: 150.95 Height: 68.16 m
Data from the previous 72 hours. | See also: Recent months at Holsworthy
Date/Time
EDT
Temp
°C
App
Temp
°C
Dew
Point
°C
Rel
Hum
%
Delta-T
°C
Wind Press
QNH
hPa
Press
MSL
hPa
Rain since
9am
mm
Dir  Spd
km/h
Gust
km/h
Spd
kts
Gust
kts
08/07:00am 19.6 20.0 16.3 81 2.0 NNE 9 15 5 8 1010.1 1009.8 0.0
08/06:30am 18.8 20.1 16.2 85 1.6 NE 4 7 2 4 1010.1 1009.8 0.0
08/06:00am 18.5 19.3 16.3 87 1.3 NE 7 9 4 5 1010.2 1010.0 0.0
08/05:30am 18.5 19.5 16.3 87 1.3 NNE 6 7 3 4 1010.2 1010.0 0.0
08/05:00am 18.7 19.5 16.3 86 1.4 NNE 7 9 4 5 1010.4 1010.2 0.0
08/04:30am 19.1 19.9 16.3 84 1.7 NE 7 11 4 6 1010.6 1010.4 0.0
08/04:00am 19.5 20.3 16.3 82 1.9 NNE 7 9 4 5 1010.8 1010.6 0.0
08/03:30am 19.7 20.5 16.3 81 2.0 N 7 11 4 6 1011.0 1010.8 0.0
08/03:00am 19.8 19.9 16.4 81 2.0 N 11 17 6 9 1011.6 1011.4 0.0
08/02:30am 19.8 20.2 16.4 81 2.0 NNE 9 17 5 9 1012.1 1011.9 0.0
08/02:00am 19.8 20.2 16.4 81 2.0 NNE 9 11 5 6 1012.4 1012.2 0.0
08/01:30am 19.9 19.2 16.3 80 2.2 N 15 22 8 12 1012.9 1012.7 0.0
08/01:00am 19.9 20.0 16.5 81 2.1 N 11 15 6 8 1013.2 1013.0 0.0
08/12:30am 20.1 20.3 16.7 81 2.1 NNE 11 15 6 8 1013.5 1013.3 0.0
08/12:00am 20.3 19.3 16.5 79 2.3 NNE 17 22 9 12 1014.0 1013.8 0.0
 
Date/Time
EDT
Temp
°C
App
Temp
°C
Dew
Point
°C
Rel
Hum
%
Delta-T
°C
Wind Press
QNH
hPa
Press
MSL
hPa
Rain since
9am
mm
Dir  Spd
km/h
Gust
km/h
Spd
kts
Gust
kts
07/11:30pm 20.5 20.3 16.7 79 2.3 NNE 13 20 7 11 1014.1 1013.9 0.0
07/11:00pm 20.5 20.7 16.7 79 2.3 NNE 11 15 6 8 1014.5 1014.2 0.0
07/10:30pm 20.5 20.9 16.3 77 2.5 NE 9 15 5 8 1014.6 1014.3 0.0
07/10:00pm 20.6 21.0 16.4 77 2.5 NE 9 15 5 8 1014.6 1014.3 0.0
07/09:30pm 20.4 20.8 16.4 78 2.4 ENE 9 13 5 7 1014.5 1014.2 0.0
07/09:00pm 20.5 20.1 16.1 76 2.6 ENE 13 20 7 11 1014.4 1014.1 0.0
07/08:30pm 20.8 20.4 16.2 75 2.8 ENE 13 20 7 11 1014.4 1014.1 0.0
07/08:00pm 21.0 20.2 16.0 73 3.0 NE 15 24 8 13 1014.2 1014.0 0.0
07/07:30pm 21.3 20.1 16.0 72 3.2 ENE 17 26 9 14 1013.9 1013.7 0.0
07/07:00pm 21.8 20.2 16.1 70 3.4 ENE 19 28 10 15 1013.8 1013.6 0.0
07/06:30pm 22.2 20.5 15.8 67 3.9 E 19 28 10 15 1013.8 1013.6 0.0
07/06:00pm 23.0 21.2 16.1 65 4.2 E 20 30 11 16 1013.5 1013.3 0.0
07/05:30pm 23.0 21.3 16.3 66 4.1 ESE 20 32 11 17 1013.4 1013.2 0.0
07/05:00pm 22.9 20.6 15.7 64 4.3 E 22 32 12 17 1013.5 1013.3 0.0
07/04:30pm 23.4 21.2 16.0 63 4.5 E 22 32 12 17 1013.7 1013.5 0.0
07/04:00pm 23.5 21.2 15.8 62 4.7 E 22 30 12 16 1013.7 1013.5 0.0
07/03:30pm 23.4 21.5 15.7 62 4.7 E 20 30 11 16 1013.8 1013.6 0.0
07/03:00pm 24.2 22.6 16.5 62 4.7 E 20 30 11 16 1014.1 1013.9 0.0
07/02:30pm 23.9 22.1 15.4 59 5.1 E 19 28 10 15 1014.5 1014.2 0.0
07/02:00pm 23.7 22.5 16.2 63 4.6 ESE 17 26 9 14 1014.8 1014.5 0.0
07/01:30pm 23.7 22.0 16.2 63 4.6 ESE 20 32 11 17 1015.0 1014.7 0.0
07/01:00pm 23.0 21.3 15.8 64 4.3 E 19 28 10 15 1015.2 1014.9 0.0
07/12:30pm 24.5 23.7 17.2 63 4.5 ENE 17 26 9 14 1015.3 1015.0 0.0
07/12:00pm 23.6 23.0 16.6 65 4.3 E 15 24 8 13 1015.7 1015.4 0.0
07/11:30am 24.0 23.7 16.5 63 4.6 E 13 19 7 10 1015.9 1015.6 0.0
07/11:00am 22.0 22.1 15.6 67 3.8 ESE 9 15 5 8 1016.0 1015.7 0.0
07/10:30am 22.2 22.3 16.5 70 3.5 ESE 11 19 6 10 1015.9 1015.6 0.0
07/10:00am 22.2 21.8 15.1 64 4.2 ESE 11 19 6 10 1015.7 1015.4 0.0
07/09:30am 22.1 21.6 15.9 68 3.7 ESE 13 22 7 12 1015.5 1015.2 0.0
07/09:00am 20.9 20.9 16.3 75 2.8 SSE 11 15 6 8 1015.3 1015.0 9.2
07/08:30am 20.5 20.8 17.1 81 2.1 S 11 13 6 7 1015.4 1015.1 9.2
07/08:00am 21.1 22.0 18.3 84 1.7 SSE 11 17 6 9 1015.3 1015.0 9.2
07/07:30am 18.8 19.9 18.0 95 0.5 SW 9 11 5 6 1015.1 1014.8 9.2
07/07:00am 18.0 18.8 17.2 95 0.5 SW 9 13 5 7 1014.9 1014.6 9.2
07/06:30am 17.0 17.1 16.4 96 0.4 SW 11 15 6 8 1014.6 1014.3 9.2
07/06:10am 17.0 17.1 16.4 96 0.4 SW 11 13 6 7 1014.5 1014.2 9.2
07/06:00am 17.0 17.1 16.4 96 0.4 WSW 11 15 6 8 1014.2 1014.0 9.2
07/05:59am 17.0 17.1 16.5 97 0.3 WSW 11 15 6 8 1014.2 1014.0 9.2
07/05:30am 17.1 18.0 16.5 96 0.4 WSW 7 9 4 5 1013.5 1013.3 9.2
07/05:00am 17.2 18.3 16.6 96 0.4 WNW 6 7 3 4 1013.5 1013.3 9.2
07/04:30am 17.3 18.2 16.5 95 0.5 SW 7 11 4 6 1013.0 1012.8 9.0
07/04:00am 17.2 17.6 16.4 95 0.5 SSW 9 11 5 6 1012.9 1012.7 8.8
07/03:30am 17.3 17.7 16.3 94 0.6 SW 9 11 5 6 1012.9 1012.7 8.8
07/03:00am 17.6 18.7 16.5 93 0.7 WSW 6 7 3 4 1013.1 1012.9 8.6
07/02:30am 17.9 18.9 16.8 93 0.7 WSW 7 9 4 5 1013.8 1013.6 8.0
07/02:00am 18.1 19.0 16.6 91 0.9 WSW 7 11 4 6 1014.1 1013.9 7.8
07/01:30am 18.6 19.5 16.6 88 1.2 SW 7 9 4 5 1013.9 1013.7 7.4
07/01:00am 19.3 19.7 16.3 83 1.8 S 9 11 5 6 1013.2 1013.0 7.4
07/12:30am 19.2 18.5 15.3 78 2.3 SSE 13 17 7 9 1013.0 1012.8 7.4
07/12:00am 19.3 18.4 14.8 75 2.6 S 13 20 7 11 1013.0 1012.8 7.4
 
Date/Time
EDT
Temp
°C
App
Temp
°C
Dew
Point
°C
Rel
Hum
%
Delta-T
°C
Wind Press
QNH
hPa
Press
MSL
hPa
Rain since
9am
mm
Dir  Spd
km/h
Gust
km/h
Spd
kts
Gust
kts
06/11:30pm 19.8 19.9 16.4 81 2.0 S 11 13 6 7 1012.7 1012.5 7.4
06/11:06pm 20.7 22.0 19.4 92 0.8 SSW 11 15 6 8 1012.8 1012.6 7.4
06/11:00pm 21.4 23.7 20.6 95 0.5 SSW 9 13 5 7 1012.7 1012.5 7.4
06/10:30pm 21.7 24.8 21.0 96 0.5 WSW 6 7 3 4 1012.5 1012.3 7.4
06/10:00pm 21.8 25.7 21.1 96 0.5 SW 2 7 1 4 1012.3 1012.1 7.0
06/09:30pm 22.0 25.2 21.3 96 0.5 WSW 6 7 3 4 1012.0 1011.8 7.0
06/09:00pm 22.1 25.2 21.4 96 0.5 SW 7 9 4 5 1011.8 1011.6 6.8
06/08:30pm 22.1 25.1 21.3 95 0.5 W 7 11 4 6 1011.4 1011.2 6.6
06/08:21pm 22.1 24.8 21.3 95 0.5 NNW 9 11 5 6 1011.2 1011.0 6.6
06/08:00pm 22.4 25.7 21.4 94 0.7 W 6 9 3 5 1011.2 1011.0 6.6
06/07:30pm 22.6 27.1 21.6 94 0.7 CALM 0 0 0 0 1010.9 1010.7 6.6
06/07:00pm 22.5 27.0 21.5 94 0.7 CALM 0 0 0 0 1010.6 1010.4 6.6
06/06:30pm 22.5 25.8 21.5 94 0.7 ENE 6 7 3 4 1010.1 1009.8 6.6
06/06:00pm 22.5 25.7 21.3 93 0.8 ENE 6 6 3 3 1010.1 1009.8 6.6
06/05:30pm 22.5 26.4 21.1 92 0.9 SSW 2 6 1 3 1010.1 1009.8 6.6
06/05:00pm 22.3 26.4 20.8 91 1.0 CALM 0 0 0 0 1010.2 1010.0 6.6
06/04:30pm 22.3 26.5 20.9 92 0.9 CALM 0 0 0 0 1010.6 1010.4 6.4
06/04:00pm 22.3 26.5 20.9 92 0.9 CALM 0 0 0 0 1010.7 1010.5 6.2
06/03:30pm 22.0 26.0 20.6 92 0.9 CALM 0 0 0 0 1010.7 1010.5 6.0
06/03:00pm 21.8 25.7 20.3 91 1.0 CALM 0 0 0 0 1011.0 1010.8 5.8
06/02:30pm 21.5 24.1 20.5 94 0.6 E 7 9 4 5 1010.7 1010.5 5.8
06/02:18pm 21.2 23.7 20.2 94 0.6 E 7 11 4 6 1010.9 1010.7 5.8
06/02:00pm 21.1 23.4 19.9 93 0.8 NE 7 11 4 6 1011.3 1011.1 5.4
06/01:30pm 21.9 24.2 19.8 88 1.3 ENE 7 11 4 6 1011.3 1011.1 2.0
06/01:21pm 22.7 24.4 19.3 81 2.2 E 9 11 5 6 1011.4 1011.2 0.6
06/01:00pm 23.5 25.4 19.0 76 2.9 ENE 7 11 4 6 1011.4 1011.2 0.0
06/12:30pm 23.4 24.7 18.5 74 3.1 E 9 13 5 7 1011.2 1011.0 0.0
06/12:00pm 23.5 25.0 18.8 75 3.0 E 9 17 5 9 1011.2 1011.0 0.0
06/11:30am 24.1 24.9 19.0 73 3.3 E 13 22 7 12 1011.0 1010.8 0.0
06/11:00am 23.4 24.8 18.7 75 3.0 E 9 19 5 10 1012.0 1011.8 0.0
06/10:30am 23.8 25.6 18.2 71 3.5 S 6 7 3 4 1012.0 1011.8 0.0
06/10:00am 23.5 25.8 18.6 74 3.1 NNW 4 7 2 4 1012.0 1011.8 0.0
06/09:30am 22.7 24.6 18.5 77 2.6 ESE 6 9 3 5 1011.8 1011.6 0.0
06/09:00am 21.4 23.1 18.0 81 2.1 SE 6 9 3 5 1012.2 1012.0 12.0
06/08:30am 20.9 22.1 18.3 85 1.6 WSW 9 13 5 7 1012.6 1012.4 12.0
06/08:25am 20.7 21.8 18.1 85 1.6 WSW 9 13 5 7 1012.6 1012.4 12.0
06/08:00am 20.5 22.3 18.3 87 1.4 SSW 6 9 3 5 1012.3 1012.1 12.0
06/07:54am 20.4 22.0 18.2 87 1.4 SSW 7 9 4 5 1012.4 1012.2 12.0
06/07:30am 20.3 21.9 18.2 88 1.3 SW 7 11 4 6 1012.1 1011.9 12.0
06/07:00am 20.1 21.7 18.2 89 1.2 WSW 7 9 4 5 1011.9 1011.7 12.0
06/06:54am 20.1 21.7 18.2 89 1.2 WSW 7 9 4 5 1011.9 1011.7 12.0
06/06:30am 20.0 22.3 17.8 87 1.4 WSW 2 6 1 3 1011.4 1011.2 12.0
06/06:00am 20.0 21.5 17.6 86 1.5 SSW 6 9 3 5 1011.4 1011.2 12.0
06/05:30am 20.3 21.7 17.9 86 1.5 SSE 7 9 4 5 1011.5 1011.3 12.0
06/05:00am 19.9 22.6 17.7 87 1.4 CALM 0 0 0 0 1011.7 1011.5 12.0
06/04:30am 19.7 22.1 17.1 85 1.6 CALM 0 0 0 0 1011.5 1011.3 12.0
06/04:00am 19.7 22.2 17.3 86 1.5 CALM 0 0 0 0 1011.4 1011.2 12.0
06/03:30am 19.6 22.1 17.2 86 1.5 CALM 0 2 0 1 1011.8 1011.6 12.0
06/03:00am 19.5 21.0 17.5 88 1.2 SW 6 7 3 4 1012.0 1011.8 12.0
06/02:30am 19.5 21.9 17.1 86 1.5 CALM 0 0 0 0 1012.3 1012.1 12.0
06/02:00am 19.7 21.9 17.5 87 1.3 W 2 6 1 3 1012.6 1012.4 12.0
06/01:30am 19.9 21.4 16.7 82 1.9 SSW 4 6 2 3 1012.7 1012.5 12.0
06/01:00am 19.8 21.6 16.4 81 2.0 SSE 2 7 1 4 1013.0 1012.8 12.0
06/12:30am 19.6 20.2 16.8 84 1.7 SSE 9 13 5 7 1013.1 1012.9 12.0
06/12:00am 20.4 21.3 16.2 77 2.5 WSW 6 9 3 5 1013.6 1013.4 11.8
 
Date/Time
EDT
Temp
°C
App
Temp
°C
Dew
Point
°C
Rel
Hum
%
Delta-T
°C
Wind Press
QNH
hPa
Press
MSL
hPa
Rain since
9am
mm
Dir  Spd
km/h
Gust
km/h
Spd
kts
Gust
kts
05/11:30pm 20.4 19.0 16.6 79 2.3 S 19 32 10 17 1013.7 1013.5 11.8
05/11:03pm 20.4 17.0 16.8 80 2.2 SSE 30 50 16 27 1012.8 1012.6 11.8
05/11:00pm 20.4 17.9 17.2 82 2.0 SSE 26 43 14 23 1012.9 1012.7 11.8
05/10:39pm 20.8 18.2 17.8 83 1.9 SSE 28 46 15 25 1012.5 1012.3 11.8
05/10:30pm 20.9 18.0 17.9 83 1.9 SSE 30 44 16 24 1012.6 1012.4 11.8
05/10:00pm 21.5 19.8 18.9 85 1.6 SSE 26 41 14 22 1012.4 1012.2 11.8
05/09:30pm 22.4 21.7 19.6 84 1.8 SSE 22 30 12 16 1012.0 1011.8 11.8
05/09:00pm 23.5 25.0 20.6 84 1.9 SSE 13 26 7 14 1011.2 1011.0 11.8
05/08:30pm 23.1 27.1 20.6 86 1.6 CALM 0 4 0 2 1010.3 1010.1 11.8
05/08:00pm 24.4 26.7 20.7 80 2.4 E 9 13 5 7 1009.7 1009.4 11.8
05/07:30pm 23.9 26.6 20.6 82 2.2 SE 7 9 4 5 1009.1 1008.8 11.8
05/07:00pm 24.1 26.8 20.6 81 2.3 ENE 7 11 4 6 1008.9 1008.6 11.8
05/06:30pm 23.8 25.9 20.1 80 2.4 ENE 9 13 5 7 1008.2 1007.9 11.8
05/06:00pm 23.8 25.8 20.7 83 2.0 NE 11 15 6 8 1007.8 1007.5 11.8
05/05:30pm 24.4 24.9 20.9 81 2.3 SE 19 24 10 13 1007.8 1007.5 11.8
05/05:09pm 24.6 24.8 22.1 86 1.7 SSE 24 41 13 22 1008.4 1008.1 11.8
05/05:06pm 24.8 25.7 21.5 82 2.2 SE 19 41 10 22 1008.5 1008.2 11.8
05/05:00pm 23.8 25.8 19.9 79 2.5 NE 9 20 5 11 1007.9 1007.6 11.8
05/04:46pm 24.0 24.9 20.1 79 2.5 WNW 15 44 8 24 1008.2 1007.9 8.8
05/04:42pm 23.6 23.7 20.3 82 2.1 W 20 63 11 34 1008.1 1007.8 7.4
05/04:33pm 23.9 24.4 20.0 79 2.5 WSW 17 63 9 34 1008.4 1008.1 6.4
05/04:31pm 24.7 27.7 22.0 85 1.8 WSW 9 24 5 13 1008.2 1007.9 4.8
05/04:30pm 25.0 28.3 22.5 86 1.7 WSW 9 20 5 11 1008.0 1007.7 4.4
05/04:24pm 25.1 27.6 21.8 82 2.2 W 11 20 6 11 1007.0 1006.7 3.8
05/04:00pm 26.3 29.5 22.4 79 2.6 NW 9 20 5 11 1007.1 1006.8 2.6
05/03:52pm 26.7 30.8 23.2 81 2.4 ESE 7 17 4 9 1006.7 1006.4 2.4
05/03:33pm 27.2 30.1 21.7 72 3.7 NE 9 13 5 7 1005.9 1005.6 2.2
05/03:30pm 26.9 30.1 22.3 76 3.1 ENE 9 13 5 7 1005.9 1005.6 2.2
05/03:11pm 26.7 27.6 21.5 73 3.5 SSW 19 32 10 17 1007.1 1006.8 0.8
05/03:00pm 29.5 32.5 22.7 67 4.7 SSW 11 15 6 8 1006.5 1006.2 0.2
05/02:30pm 31.7 33.2 20.6 51 7.4 ENE 13 17 7 9 1006.2 1005.9 0.0
05/02:00pm 32.2 34.6 20.1 48 8.1 E 7 13 4 7 1006.6 1006.3 0.0
05/01:30pm 32.3 34.8 20.2 48 8.1 E 7 11 4 6 1007.1 1006.8 0.0
05/01:00pm 32.3 34.3 19.9 48 8.2 NNE 9 15 5 8 1007.3 1007.0 0.0
05/12:30pm 30.8 33.1 19.8 52 7.2 NNW 7 13 4 7 1007.5 1007.2 0.0
05/12:00pm 30.3 32.7 20.0 54 6.8 NNW 7 17 4 9 1007.8 1007.5 0.0
05/11:30am 28.0 30.7 20.6 64 4.9 N 7 13 4 7 1008.2 1007.9 0.0
05/11:00am 27.0 29.4 20.8 69 4.1 NNW 9 17 5 9 1008.8 1008.5 0.0
05/10:30am 26.0 27.9 20.6 72 3.5 N 11 15 6 8 1009.0 1008.7 0.0
05/10:00am 25.5 27.7 20.3 73 3.4 NNW 9 13 5 7 1009.3 1009.0 0.0
05/09:42am 25.5 27.0 20.5 74 3.3 N 13 19 7 10 1009.5 1009.2 0.0
05/09:30am 25.7 27.1 20.3 72 3.5 NNW 13 19 7 10 1009.6 1009.3 0.0
05/09:21am 26.7 29.3 21.9 75 3.2 N 11 17 6 9 1009.7 1009.4 0.0
05/09:17am 26.0 28.3 21.4 76 3.1 N 11 15 6 8 1009.7 1009.4 0.0
05/09:00am 24.5 26.4 20.6 79 2.6 N 11 17 6 9 1009.7 1009.4 0.8
05/08:30am 23.2 25.7 21.1 88 1.4 NNW 9 15 5 8 1009.9 1009.6 0.8
05/08:04am 22.7 25.0 21.3 92 0.9 N 11 15 6 8 1009.8 1009.5 0.8
05/08:00am 22.6 24.4 21.1 91 1.0 NNE 13 15 7 8 1009.8 1009.5 0.8
05/07:30am 22.5 25.0 20.2 87 1.5 NNW 7 11 4 6 1009.3 1009.0 0.8

Other Formats:

Comma delimited format used in spreadsheet applications
http://www.bom.gov.au/fwo/IDN60801/IDN60801.95761.axf

JavaScript Object Notation format (JSON) in row-major order
http://www.bom.gov.au/fwo/IDN60801/IDN60801.95761.json